KSAT/SAT METAR and TAF weather

Enter ICAO airport designator
Station Type Date Time Source
KSAT METAR 2019/08/25 18:51 UTC NOAA

KSAT 251851Z VRB05KT 10SM SCT042 35/23 A2985 RMK AO2 SLP087 T03500228


Station Type Date Time Source
KSAT Decoded METAR 2019/08/25 18:51 UTC NOAA

Station name not available
Aug 25, 2019 - 02:51 PM EDT / 2019.08.25 1851 UTC
Wind: Variable at 6 MPH (5 KT):0
Visibility: 10 mile(s):0
Sky conditions: partly cloudy
Temperature: 95.0 F (35.0 C)
Heat index: 104.5 F (40.3 C):1
Dew Point: 73.0 F (22.8 C)
Relative Humidity: 49%
Pressure (altimeter): 29.85 in. Hg (1010 hPa)
ob: KSAT 251851Z VRB05KT 10SM SCT042 35/23 A2985 RMK AO2 SLP087 T03500228
cycle: 19

Station Type Date Time Source
KSAT TAF 2019/08/25 18:36 UTC NOAA

TAF KSAT 251733Z 2518/2624 12006KT P6SM SCT025
FM252000 16009KT P6SM SCT070
FM260900 18007KT P6SM FEW008 BKN015
FM261400 18008KT P6SM BKN025
FM261600 17009KT P6SM SCT050

Example: see airport list